createdAt,value
2018-08-31T00:03:43.784Z,60.60
2018-08-31T00:09:14.727Z,61.80
2018-08-31T00:11:44.661Z,61.80
2018-08-31T00:14:14.018Z,61.80
2018-08-31T00:16:43.754Z,61.90
2018-08-31T00:19:13.826Z,61.80
2018-08-31T00:21:43.609Z,61.80
2018-08-31T00:24:24.424Z,61.30
2018-08-31T00:27:04.807Z,61.00
2018-08-31T00:32:46.660Z,60.60
2018-08-31T00:35:16.525Z,60.30
2018-08-31T00:37:46.773Z,61.40
2018-08-31T00:40:16.770Z,61.50
2018-08-31T00:42:47.067Z,61.20
2018-08-31T00:45:16.919Z,61.20
2018-08-31T00:47:46.708Z,61.10
2018-08-31T00:50:16.029Z,61.60
2018-08-31T00:52:45.225Z,61.70
2018-08-31T00:55:15.453Z,61.50
2018-08-31T00:57:44.945Z,61.50
2018-08-31T01:00:14.710Z,61.30
2018-08-31T01:02:43.966Z,62.30
2018-08-31T01:05:16.538Z,61.60
2018-08-31T01:07:46.962Z,60.80
2018-08-31T01:10:17.392Z,61.40
2018-08-31T01:12:46.891Z,61.40
2018-08-31T01:15:16.455Z,61.30
2018-08-31T01:17:45.780Z,61.00
2018-08-31T01:20:15.410Z,62.00
2018-08-31T01:22:45.138Z,63.20
2018-08-31T01:25:15.527Z,62.70
2018-08-31T01:27:45.136Z,62.70
2018-08-31T01:30:14.427Z,62.90
2018-08-31T01:32:44.640Z,63.40
2018-08-31T01:35:14.292Z,63.10
2018-08-31T01:37:44.024Z,63.20
2018-08-31T01:40:13.891Z,63.40
2018-08-31T01:42:43.528Z,63.50
2018-08-31T01:45:13.051Z,63.60
2018-08-31T01:47:42.721Z,63.40
2018-08-31T01:50:12.352Z,63.70
2018-08-31T01:52:41.942Z,63.60
2018-08-31T01:55:11.687Z,63.60
2018-08-31T01:57:41.995Z,64.00
2018-08-31T02:00:11.683Z,64.10
2018-08-31T02:02:41.207Z,64.90
2018-08-31T02:05:10.848Z,65.10
2018-08-31T02:07:40.547Z,64.80
2018-08-31T02:10:10.307Z,65.70
2018-08-31T02:12:39.754Z,65.80
2018-08-31T02:15:09.256Z,66.40
2018-08-31T02:17:39.057Z,66.70
2018-08-31T02:20:08.860Z,67.10
2018-08-31T02:22:38.900Z,67.60
2018-08-31T02:25:08.332Z,67.60
2018-08-31T02:27:38.599Z,67.80
2018-08-31T02:30:09.293Z,67.40
2018-08-31T02:32:39.216Z,67.40
2018-08-31T02:35:08.959Z,66.70
2018-08-31T02:37:39.569Z,66.80
2018-08-31T02:40:12.372Z,66.60
2018-08-31T02:42:42.059Z,67.10
2018-08-31T02:45:11.612Z,67.20
2018-08-31T02:47:41.120Z,67.70
2018-08-31T02:50:12.073Z,68.50
2018-08-31T02:52:43.324Z,68.70
2018-08-31T02:55:13.056Z,68.90
2018-08-31T02:57:42.793Z,68.90
2018-08-31T03:00:12.548Z,69.10
2018-08-31T03:02:41.648Z,69.20
2018-08-31T03:05:12.324Z,69.50
2018-08-31T03:07:42.025Z,69.50
2018-08-31T03:10:11.650Z,69.40
2018-08-31T03:12:41.380Z,69.90
2018-08-31T03:15:11.914Z,70.20
2018-08-31T03:17:42.536Z,70.40
2018-08-31T03:20:13.459Z,70.30
2018-08-31T03:22:43.388Z,70.20
2018-08-31T03:25:12.848Z,70.40
2018-08-31T03:27:43.397Z,70.20
2018-08-31T03:30:12.935Z,70.80
2018-08-31T03:32:44.412Z,71.10
2018-08-31T03:35:14.802Z,71.10
2018-08-31T03:37:45.596Z,71.40
2018-08-31T03:40:15.421Z,71.30
2018-08-31T03:42:46.204Z,71.40
2018-08-31T03:45:16.684Z,71.80
2018-08-31T03:47:46.250Z,71.70
2018-08-31T03:50:16.962Z,71.70
2018-08-31T03:52:47.333Z,72.00
2018-08-31T03:55:17.068Z,71.80
2018-08-31T03:57:46.941Z,71.90
2018-08-31T04:00:16.045Z,72.00
2018-08-31T04:02:45.719Z,71.90
2018-08-31T04:05:15.113Z,72.20
2018-08-31T04:07:46.023Z,72.60
2018-08-31T04:10:16.176Z,72.50
2018-08-31T04:12:46.613Z,72.80
2018-08-31T04:15:16.258Z,72.80
2018-08-31T04:17:46.844Z,72.60
2018-08-31T04:20:17.232Z,72.70
2018-08-31T04:22:48.367Z,72.70
2018-08-31T04:25:17.950Z,72.60
2018-08-31T04:27:48.643Z,74.10
2018-08-31T04:30:18.104Z,74.50
2018-08-31T04:32:47.653Z,74.60
2018-08-31T04:35:17.033Z,74.40
2018-08-31T04:37:46.512Z,74.10
2018-08-31T04:40:16.359Z,74.40
2018-08-31T04:42:46.297Z,74.80
2018-08-31T04:45:17.133Z,76.00
2018-08-31T04:47:47.184Z,76.40
2018-08-31T04:50:16.391Z,76.30
2018-08-31T04:52:45.688Z,76.70
2018-08-31T04:55:14.838Z,76.40
2018-08-31T04:57:44.688Z,76.70
2018-08-31T05:00:14.461Z,76.60
2018-08-31T05:02:44.808Z,77.00
2018-08-31T05:05:14.620Z,77.10
2018-08-31T05:07:44.805Z,76.20
2018-08-31T05:10:14.577Z,76.20
2018-08-31T05:12:44.340Z,76.20
2018-08-31T05:15:13.727Z,76.30
2018-08-31T05:17:43.449Z,76.40
2018-08-31T05:20:13.077Z,75.60
2018-08-31T05:22:42.865Z,76.00
2018-08-31T05:25:12.353Z,75.90
2018-08-31T05:27:42.078Z,76.00
2018-08-31T05:30:11.738Z,76.00
2018-08-31T05:32:41.427Z,76.10
2018-08-31T05:35:11.147Z,76.60
2018-08-31T05:37:40.440Z,77.30
2018-08-31T05:40:11.097Z,76.70
2018-08-31T05:42:40.565Z,76.70
2018-08-31T05:45:10.609Z,76.70
2018-08-31T05:51:11.837Z,76.90
2018-08-31T05:53:43.148Z,77.10
2018-08-31T05:56:12.801Z,77.30
2018-08-31T05:58:43.534Z,77.50
2018-08-31T06:01:13.180Z,77.50
2018-08-31T06:03:43.968Z,77.60
2018-08-31T06:06:13.575Z,77.60
2018-08-31T06:08:42.831Z,78.10
2018-08-31T06:11:13.051Z,78.10
2018-08-31T06:13:43.485Z,78.00
2018-08-31T06:16:14.865Z,78.10
2018-08-31T06:18:44.318Z,78.00
2018-08-31T06:21:14.567Z,78.10
2018-08-31T06:23:43.473Z,78.30
2018-08-31T06:26:12.685Z,78.50
2018-08-31T06:28:42.576Z,78.40
2018-08-31T06:31:12.127Z,78.80
2018-08-31T06:33:41.844Z,78.60
2018-08-31T06:36:11.424Z,78.90
2018-08-31T06:38:41.069Z,78.80
2018-08-31T06:41:10.887Z,78.90
2018-08-31T06:43:40.639Z,78.60
2018-08-31T06:46:10.556Z,79.00
2018-08-31T06:48:39.904Z,79.10
2018-08-31T06:51:09.610Z,79.30
2018-08-31T06:53:39.031Z,79.80
2018-08-31T06:56:08.475Z,79.90
2018-08-31T06:58:38.102Z,79.50
2018-08-31T07:01:07.696Z,79.80
2018-08-31T07:03:38.343Z,79.90
2018-08-31T07:06:08.676Z,79.70
2018-08-31T07:08:38.438Z,79.60
2018-08-31T07:11:07.855Z,80.40
2018-08-31T07:13:37.921Z,79.80
2018-08-31T07:16:07.408Z,80.10
2018-08-31T07:18:37.069Z,79.70
2018-08-31T07:21:06.563Z,80.00
2018-08-31T07:23:36.863Z,80.40
2018-08-31T07:26:07.208Z,80.80
2018-08-31T07:28:36.784Z,80.40
2018-08-31T07:31:07.565Z,80.70
2018-08-31T07:33:37.027Z,80.60
2018-08-31T07:36:07.306Z,81.10
2018-08-31T07:38:39.053Z,80.80
2018-08-31T07:41:08.800Z,81.60
2018-08-31T07:43:38.412Z,81.70
2018-08-31T07:46:07.658Z,81.90
2018-08-31T07:48:37.236Z,81.90
2018-08-31T07:51:06.978Z,81.80
2018-08-31T07:53:36.636Z,82.00
2018-08-31T07:56:05.806Z,82.10
2018-08-31T07:58:35.941Z,82.10
2018-08-31T08:01:05.463Z,82.40
2018-08-31T08:03:34.997Z,82.20
2018-08-31T08:06:04.463Z,82.50
2018-08-31T08:08:34.220Z,82.60
2018-08-31T08:11:03.616Z,82.70
2018-08-31T08:13:32.992Z,82.90
2018-08-31T08:16:02.739Z,83.00
2018-08-31T08:18:32.567Z,82.90
2018-08-31T08:21:02.924Z,82.70
2018-08-31T08:23:32.353Z,82.80
2018-08-31T08:26:01.783Z,82.90
2018-08-31T08:28:31.492Z,83.10
2018-08-31T08:31:01.045Z,83.10
2018-08-31T08:33:30.443Z,83.10
2018-08-31T08:35:59.994Z,83.20
2018-08-31T08:38:30.507Z,83.10
2018-08-31T08:41:00.240Z,83.10
2018-08-31T08:43:29.823Z,83.10
2018-08-31T08:45:59.375Z,83.00
2018-08-31T08:48:29.021Z,83.20
2018-08-31T08:50:58.537Z,83.20
2018-08-31T08:53:29.394Z,83.40
2018-08-31T08:55:59.111Z,83.50
2018-08-31T08:58:29.732Z,83.80
2018-08-31T09:00:59.518Z,83.60
2018-08-31T09:03:29.007Z,83.80
2018-08-31T09:05:58.599Z,83.90
2018-08-31T09:08:28.328Z,83.80
2018-08-31T09:10:58.573Z,83.90
2018-08-31T09:13:28.132Z,83.90
2018-08-31T09:15:58.518Z,84.20
2018-08-31T09:18:29.682Z,84.20
2018-08-31T09:20:59.246Z,84.40
2018-08-31T09:23:29.940Z,84.40
2018-08-31T09:26:00.351Z,84.60
2018-08-31T09:28:29.914Z,84.60
2018-08-31T09:31:00.245Z,84.50
2018-08-31T09:33:29.753Z,84.60
2018-08-31T09:35:59.425Z,84.70
2018-08-31T09:38:28.949Z,84.80
2018-08-31T09:40:58.277Z,85.00
2018-08-31T09:43:27.466Z,84.80
2018-08-31T09:45:56.805Z,84.80
2018-08-31T09:48:26.331Z,85.00
2018-08-31T09:50:56.348Z,85.20
2018-08-31T09:53:26.438Z,85.10
2018-08-31T09:55:56.030Z,85.10
2018-08-31T09:58:25.710Z,85.00
2018-08-31T10:00:57.293Z,84.80
2018-08-31T10:03:26.928Z,84.70
2018-08-31T10:05:56.435Z,84.90
2018-08-31T10:08:25.812Z,84.80
2018-08-31T10:10:56.527Z,84.80
2018-08-31T10:13:26.247Z,84.60
2018-08-31T10:15:56.983Z,84.90
2018-08-31T10:18:27.886Z,84.80
2018-08-31T10:20:57.646Z,84.40
2018-08-31T10:23:27.204Z,84.20
2018-08-31T10:25:56.615Z,84.20
2018-08-31T10:28:27.425Z,84.30
2018-08-31T10:30:57.540Z,84.20
2018-08-31T10:33:27.191Z,84.20
2018-08-31T10:35:56.818Z,83.90
2018-08-31T10:38:26.196Z,84.20
2018-08-31T10:40:55.757Z,84.50
2018-08-31T10:43:25.671Z,84.50
2018-08-31T10:45:56.427Z,84.50
2018-08-31T10:48:26.836Z,84.40
2018-08-31T10:50:56.508Z,84.40
2018-08-31T10:53:26.068Z,84.20
2018-08-31T10:55:55.393Z,84.30
2018-08-31T10:58:25.043Z,84.10
2018-08-31T11:00:55.440Z,84.10
2018-08-31T11:03:24.796Z,84.10
2018-08-31T11:05:55.577Z,83.60
2018-08-31T11:08:26.265Z,84.30
2018-08-31T11:10:55.749Z,84.20
2018-08-31T11:13:25.128Z,84.20
2018-08-31T11:15:54.565Z,83.90
2018-08-31T11:18:25.008Z,84.10
2018-08-31T11:20:56.614Z,84.10
2018-08-31T11:23:28.172Z,83.90
2018-08-31T11:25:57.633Z,84.10
2018-08-31T11:28:27.028Z,83.70
2018-08-31T11:30:56.981Z,83.70
2018-08-31T11:33:26.531Z,83.70
2018-08-31T11:35:56.795Z,83.90
2018-08-31T11:38:26.313Z,83.80
2018-08-31T11:40:56.288Z,83.60
2018-08-31T11:43:26.074Z,84.10
2018-08-31T11:45:55.813Z,84.20
2018-08-31T11:48:25.229Z,84.20
2018-08-31T11:50:55.643Z,84.10
2018-08-31T11:53:25.221Z,84.10
2018-08-31T11:55:54.778Z,84.20
2018-08-31T11:58:24.418Z,84.10
2018-08-31T12:00:53.721Z,84.40
2018-08-31T12:03:23.228Z,84.40
2018-08-31T12:05:53.304Z,84.40
2018-08-31T12:08:22.974Z,84.50
2018-08-31T12:10:52.519Z,84.60
2018-08-31T12:13:22.237Z,84.70
2018-08-31T12:15:52.558Z,84.50
2018-08-31T12:18:21.891Z,84.80
2018-08-31T12:20:51.237Z,84.70
2018-08-31T12:23:20.993Z,84.40
2018-08-31T12:25:51.409Z,84.50
2018-08-31T12:28:21.907Z,84.40
2018-08-31T12:30:51.170Z,84.50
2018-08-31T12:33:21.310Z,84.90
2018-08-31T12:35:51.918Z,84.80
2018-08-31T12:38:21.230Z,84.80
2018-08-31T12:40:51.426Z,84.80
2018-08-31T12:43:21.129Z,84.80
2018-08-31T12:45:50.693Z,84.80
2018-08-31T12:48:21.520Z,84.60
2018-08-31T12:50:51.414Z,84.60
2018-08-31T12:53:21.159Z,84.80
2018-08-31T12:55:50.502Z,84.90
2018-08-31T12:58:19.969Z,84.50
2018-08-31T13:00:49.249Z,84.40
2018-08-31T13:03:18.699Z,84.80
2018-08-31T13:05:48.013Z,84.70
2018-08-31T13:08:17.225Z,84.80
2018-08-31T13:10:46.615Z,85.10
2018-08-31T13:13:16.009Z,85.20
2018-08-31T13:15:45.310Z,85.20
2018-08-31T13:18:16.872Z,85.00
2018-08-31T13:20:46.348Z,85.10
2018-08-31T13:23:17.148Z,85.50
2018-08-31T13:25:47.198Z,85.30
2018-08-31T13:28:16.609Z,85.20
2018-08-31T13:30:46.087Z,85.20
2018-08-31T13:33:15.379Z,85.20
2018-08-31T13:35:44.707Z,85.20
2018-08-31T13:38:15.091Z,85.40
2018-08-31T13:40:45.718Z,85.40
2018-08-31T13:43:15.289Z,85.40
2018-08-31T13:45:44.660Z,85.50
2018-08-31T13:48:14.202Z,85.40
2018-08-31T13:50:43.715Z,85.40
2018-08-31T13:53:15.050Z,85.20
2018-08-31T13:55:45.989Z,85.20
2018-08-31T13:58:15.644Z,85.20
2018-08-31T14:00:47.348Z,85.30
2018-08-31T14:03:17.302Z,85.30
2018-08-31T14:05:47.521Z,85.20
2018-08-31T14:08:17.096Z,85.00
2018-08-31T14:10:46.884Z,85.00
2018-08-31T14:13:18.483Z,84.90
2018-08-31T14:15:49.438Z,84.70
2018-08-31T14:18:20.051Z,84.80
2018-08-31T14:20:49.653Z,84.80
2018-08-31T14:23:19.406Z,84.90
2018-08-31T14:25:50.064Z,85.10
2018-08-31T14:28:19.277Z,85.10
2018-08-31T14:30:48.597Z,85.00
2018-08-31T14:33:18.774Z,84.70
2018-08-31T14:35:49.048Z,84.60
2018-08-31T14:38:18.472Z,84.90
2018-08-31T14:40:48.003Z,84.90
2018-08-31T14:43:17.305Z,84.40
2018-08-31T14:45:46.619Z,83.90
2018-08-31T14:48:17.292Z,83.50
2018-08-31T14:50:47.083Z,82.70
2018-08-31T14:53:16.256Z,81.10
2018-08-31T14:55:45.902Z,82.00
2018-08-31T14:58:15.345Z,81.70
2018-08-31T15:00:44.850Z,81.00
2018-08-31T15:03:14.497Z,81.80
2018-08-31T15:05:44.113Z,81.70
2018-08-31T15:08:13.709Z,81.40
2018-08-31T15:10:42.902Z,80.30
2018-08-31T15:13:12.522Z,80.70
2018-08-31T15:15:43.179Z,80.20
2018-08-31T15:18:12.727Z,80.70
2018-08-31T15:20:42.334Z,80.80
2018-08-31T15:23:11.946Z,81.10
2018-08-31T15:25:41.518Z,81.00
2018-08-31T15:28:10.779Z,80.70
2018-08-31T15:30:41.192Z,80.30
2018-08-31T15:33:10.701Z,80.40
2018-08-31T15:35:40.317Z,78.70
2018-08-31T15:38:10.209Z,78.20
2018-08-31T15:40:40.655Z,78.90
2018-08-31T15:43:10.077Z,76.90
2018-08-31T15:45:39.639Z,77.00
2018-08-31T15:48:09.466Z,77.80
2018-08-31T15:50:39.095Z,77.20
2018-08-31T15:53:08.477Z,77.50
2018-08-31T15:55:38.465Z,76.60
2018-08-31T15:58:09.238Z,77.10
2018-08-31T16:00:38.426Z,76.90
2018-08-31T16:03:07.761Z,77.20
2018-08-31T16:05:37.104Z,77.40
2018-08-31T16:08:07.648Z,77.20
2018-08-31T16:10:38.147Z,77.10
2018-08-31T16:13:08.723Z,77.60
2018-08-31T16:15:38.505Z,77.10
2018-08-31T16:18:08.192Z,77.60
2018-08-31T16:20:37.796Z,77.60
2018-08-31T16:23:10.217Z,77.40
2018-08-31T16:25:39.755Z,77.40
2018-08-31T16:28:08.944Z,77.00
2018-08-31T16:30:38.325Z,76.50
2018-08-31T16:33:08.589Z,76.40
2018-08-31T16:35:38.360Z,76.70
2018-08-31T16:38:07.902Z,75.90
2018-08-31T16:40:37.627Z,76.20
2018-08-31T16:43:07.190Z,75.40
2018-08-31T16:45:36.463Z,74.10
2018-08-31T16:48:05.866Z,73.60
2018-08-31T16:50:36.228Z,72.80
2018-08-31T16:53:05.981Z,72.00
2018-08-31T16:55:37.112Z,65.90
2018-08-31T16:58:06.838Z,65.90
2018-08-31T17:00:37.716Z,63.80
2018-08-31T17:03:07.480Z,59.60
2018-08-31T17:05:37.042Z,59.00
2018-08-31T17:08:06.507Z,59.70
2018-08-31T17:10:36.259Z,60.60
2018-08-31T17:13:06.199Z,59.90
2018-08-31T17:15:36.779Z,56.80
2018-08-31T17:18:07.485Z,56.30
2018-08-31T17:20:37.777Z,46.90
2018-08-31T17:23:09.659Z,41.00
2018-08-31T17:25:39.669Z,29.00
2018-08-31T17:31:08.811Z,29.20
2018-08-31T17:33:55.009Z,34.60
2018-08-31T17:36:42.840Z,39.50
2018-08-31T17:39:12.277Z,39.40
2018-08-31T17:41:41.845Z,43.00
2018-08-31T17:44:12.193Z,46.10
2018-08-31T17:46:41.728Z,48.70
2018-08-31T17:49:11.244Z,49.20
2018-08-31T17:51:41.773Z,50.40
2018-08-31T17:54:11.480Z,51.50
2018-08-31T17:56:40.989Z,50.30
2018-08-31T17:59:10.584Z,51.10
2018-08-31T18:01:41.127Z,53.30
2018-08-31T18:04:10.822Z,54.50
2018-08-31T18:06:41.718Z,56.60
2018-08-31T18:09:11.819Z,58.00
2018-08-31T18:11:41.410Z,58.00
2018-08-31T18:14:11.087Z,59.00
2018-08-31T18:16:41.042Z,59.40
2018-08-31T18:19:10.493Z,59.90
2018-08-31T18:21:40.125Z,59.80
2018-08-31T18:24:11.910Z,59.50
2018-08-31T18:26:41.008Z,59.70
2018-08-31T18:29:10.468Z,60.10
2018-08-31T18:31:40.725Z,61.30
2018-08-31T18:34:11.024Z,61.80
2018-08-31T18:36:40.424Z,62.10
2018-08-31T18:39:11.092Z,62.70
2018-08-31T18:41:40.830Z,62.80
2018-08-31T18:44:11.543Z,63.10
2018-08-31T18:46:41.290Z,63.00
2018-08-31T18:49:10.857Z,63.70
2018-08-31T18:51:40.549Z,63.20
2018-08-31T18:54:10.528Z,64.20
2018-08-31T18:56:40.868Z,64.10
2018-08-31T18:59:10.304Z,63.90
2018-08-31T19:01:40.383Z,64.40
2018-08-31T19:04:09.833Z,64.50
2018-08-31T19:06:39.164Z,64.10
2018-08-31T19:09:08.647Z,64.60
2018-08-31T19:11:38.786Z,64.20
2018-08-31T19:14:11.036Z,64.20
2018-08-31T19:16:41.627Z,60.40
2018-08-31T19:19:12.232Z,60.40
2018-08-31T19:21:41.885Z,60.60
2018-08-31T19:24:11.263Z,59.60
2018-08-31T19:26:40.658Z,56.70
2018-08-31T19:29:10.180Z,55.90
2018-08-31T19:31:40.104Z,56.10
2018-08-31T19:34:09.360Z,55.80
2018-08-31T19:36:38.940Z,56.70
2018-08-31T19:39:08.467Z,57.10
2018-08-31T19:41:38.217Z,58.50
2018-08-31T19:44:08.249Z,59.70
2018-08-31T19:46:37.813Z,61.20
2018-08-31T19:49:08.511Z,60.30
2018-08-31T19:51:37.962Z,60.80
2018-08-31T19:54:07.239Z,61.90
2018-08-31T19:56:36.926Z,60.70
2018-08-31T19:59:06.850Z,60.70
2018-08-31T20:01:36.300Z,61.40
2018-08-31T20:04:06.900Z,59.80
2018-08-31T20:06:36.293Z,57.40
2018-08-31T20:09:07.441Z,58.90
2018-08-31T20:11:37.072Z,60.00
2018-08-31T20:14:06.787Z,60.70
2018-08-31T20:16:36.105Z,60.20
2018-08-31T20:19:05.458Z,60.20
2018-08-31T20:21:35.355Z,60.00
2018-08-31T20:24:05.705Z,58.00
2018-08-31T20:26:35.521Z,58.00
2018-08-31T20:29:05.452Z,56.80
2018-08-31T20:31:34.872Z,56.50
2018-08-31T20:34:05.408Z,57.60
2018-08-31T20:36:35.645Z,58.30
2018-08-31T20:39:05.119Z,59.40
2018-08-31T20:41:34.491Z,58.90
2018-08-31T20:44:04.064Z,57.20
2018-08-31T20:46:33.676Z,57.90
2018-08-31T20:49:03.195Z,57.30
2018-08-31T20:51:32.976Z,57.60
2018-08-31T20:54:02.434Z,57.30
2018-08-31T20:56:31.748Z,57.60
2018-08-31T20:59:01.211Z,58.20
2018-08-31T21:01:31.594Z,57.50
2018-08-31T21:04:02.195Z,57.40
2018-08-31T21:06:32.220Z,57.10
2018-08-31T21:09:02.550Z,57.60
2018-08-31T21:11:31.990Z,57.60
2018-08-31T21:14:01.803Z,56.80
2018-08-31T21:16:31.320Z,56.70
2018-08-31T21:19:00.677Z,56.90
2018-08-31T21:21:30.018Z,56.80
2018-08-31T21:23:59.936Z,57.90
2018-08-31T21:26:30.599Z,56.70
2018-08-31T21:29:00.959Z,57.00
2018-08-31T21:31:30.283Z,56.90
2018-08-31T21:33:59.800Z,56.20
2018-08-31T21:36:29.382Z,56.10
2018-08-31T21:38:59.025Z,54.60
2018-08-31T21:41:28.589Z,55.80
2018-08-31T21:43:58.104Z,54.90
2018-08-31T21:46:29.144Z,54.60
2018-08-31T21:48:59.419Z,54.90
2018-08-31T21:51:30.384Z,55.30
2018-08-31T21:53:59.750Z,54.40
2018-08-31T21:56:29.325Z,53.90
2018-08-31T21:58:58.966Z,54.70
2018-08-31T22:01:28.531Z,55.00
2018-08-31T22:03:58.018Z,55.40
2018-08-31T22:06:28.144Z,55.70
2018-08-31T22:08:58.366Z,56.00
2018-08-31T22:11:27.982Z,56.00
2018-08-31T22:13:57.303Z,56.30
2018-08-31T22:16:26.996Z,56.00
2018-08-31T22:18:56.484Z,55.70
2018-08-31T22:21:26.210Z,55.90
2018-08-31T22:23:55.853Z,55.50
2018-08-31T22:26:25.212Z,55.70
2018-08-31T22:28:54.609Z,55.40
2018-08-31T22:31:24.418Z,54.30
2018-08-31T22:33:53.793Z,55.00
2018-08-31T22:36:23.105Z,55.50
2018-08-31T22:38:52.575Z,56.30
2018-08-31T22:41:22.033Z,55.00
2018-08-31T22:43:51.337Z,54.90
2018-08-31T22:46:20.872Z,55.80
2018-08-31T22:48:50.939Z,56.50
2018-08-31T22:51:20.722Z,56.60
2018-08-31T22:53:49.887Z,57.00
2018-08-31T22:56:19.191Z,56.40
2018-08-31T22:58:48.819Z,56.00
2018-08-31T23:01:18.411Z,55.60
2018-08-31T23:03:47.894Z,55.60
2018-08-31T23:06:17.209Z,55.60
2018-08-31T23:08:46.505Z,56.30
2018-08-31T23:11:16.459Z,55.80
2018-08-31T23:13:45.948Z,55.30
2018-08-31T23:16:15.420Z,56.40
2018-08-31T23:18:44.853Z,56.40
2018-08-31T23:21:14.277Z,55.80
2018-08-31T23:23:44.977Z,54.80
2018-08-31T23:26:14.346Z,55.30
2018-08-31T23:28:45.298Z,55.40
2018-08-31T23:31:14.914Z,55.10
2018-08-31T23:33:45.079Z,55.30
2018-08-31T23:36:14.738Z,55.20
2018-08-31T23:38:44.249Z,55.00
2018-08-31T23:41:13.759Z,55.50
2018-08-31T23:43:42.963Z,55.60
2018-08-31T23:46:12.754Z,54.80
2018-08-31T23:48:42.080Z,54.40
2018-08-31T23:51:13.090Z,54.90
2018-08-31T23:53:42.630Z,54.90
2018-08-31T23:56:11.903Z,54.70
2018-08-31T23:58:41.270Z,53.30
